Time;durP1;ratioP1;P1;durP2;ratioP2;P2;SDS_P1;SDS_P2;PMS_P1;PMS_P2;Temp;Humidity;BMP_temperature;BMP_pressure;BME280_temperature;BME280_humidity;BME280_pressure;Samples;Min_cycle;Max_cycle;Signal;HPM_P1;HPM_P2
2021/03/28 00:01:11;;;;;;;9.23;3.77;;;;;;;4.09;72.00;101655.23;1711693;81;27862;-60
2021/03/28 00:03:44;;;;;;;10.98;3.70;;;;;;;4.09;71.95;101657.89;1707265;82;26007;-61
2021/03/28 00:06:51;;;;;;;11.12;4.28;;;;;;;4.08;72.00;101657.45;1718177;81;25903;-61
2021/03/28 00:09:27;;;;;;;10.30;3.92;;;;;;;4.08;72.00;101664.08;1718201;81;25828;-60
2021/03/28 00:12:21;;;;;;;10.15;3.42;;;;;;;4.10;72.04;101668.06;1702818;81;26165;-60
2021/03/28 00:15:10;;;;;;;7.45;4.17;;;;;;;4.10;72.12;101664.97;1731990;81;27807;-61
2021/03/28 00:18:08;;;;;;;10.23;3.58;;;;;;;4.11;72.10;101658.77;1724831;81;26007;-60
2021/03/28 00:20:39;;;;;;;6.67;2.80;;;;;;;4.11;72.06;101662.75;1729142;81;25903;-61
2021/03/28 00:23:23;;;;;;;11.73;3.55;;;;;;;4.10;72.03;101660.98;1713995;81;25876;-60
2021/03/28 00:26:21;;;;;;;6.03;2.50;;;;;;;4.09;72.03;101663.20;1708111;81;25884;-60
2021/03/28 00:28:55;;;;;;;5.40;3.30;;;;;;;4.09;71.99;101659.22;1735580;81;28102;-60
2021/03/28 00:31:32;;;;;;;12.63;3.58;;;;;;;4.07;72.01;101680.88;1699888;82;26009;-60
2021/03/28 00:34:21;;;;;;;7.10;2.85;;;;;;;4.05;71.85;101671.16;1704293;81;26275;-60
2021/03/28 00:36:56;;;;;;;12.65;2.92;;;;;;;4.00;71.79;101672.48;1744187;81;26815;-60
2021/03/28 00:39:46;;;;;;;12.33;3.20;;;;;;;3.97;71.75;101676.46;1714592;81;25954;-60
2021/03/28 00:42:41;;;;;;;7.33;3.20;;;;;;;3.94;71.69;101668.50;1715902;81;27446;-60
2021/03/28 00:45:38;;;;;;;11.12;3.72;;;;;;;3.89;71.71;101667.17;1704539;80;26257;-60
2021/03/28 00:48:11;;;;;;;5.20;2.45;;;;;;;3.86;71.73;101677.78;1712521;81;25785;-61
2021/03/28 00:50:50;;;;;;;8.55;3.10;;;;;;;3.83;71.61;101671.59;1706298;81;25889;-60
2021/03/28 00:53:44;;;;;;;7.33;3.05;;;;;;;3.80;71.62;101686.17;1730437;81;26529;-61
2021/03/28 00:56:23;;;;;;;8.88;3.33;;;;;;;3.76;71.53;101689.70;1728676;81;28359;-59
2021/03/28 00:59:02;;;;;;;13.05;4.08;;;;;;;3.72;71.56;101694.13;1734913;81;26095;-59
2021/03/28 01:01:38;;;;;;;10.58;3.72;;;;;;;3.68;71.59;101682.19;1698938;82;25738;-59
2021/03/28 01:04:44;;;;;;;12.07;3.80;;;;;;;3.64;71.67;101692.34;1719772;81;26228;-60
2021/03/28 01:07:21;;;;;;;9.73;3.52;;;;;;;3.57;71.61;101692.77;1706112;81;25893;-60
2021/03/28 01:10:26;;;;;;;9.78;3.90;;;;;;;3.49;71.62;101688.78;1710358;80;28058;-60
2021/03/28 01:13:40;;;;;;;10.68;4.03;;;;;;;3.45;71.67;101694.95;1714655;80;26356;-60
2021/03/28 01:17:04;;;;;;;12.93;4.17;;;;;;;3.37;71.81;101692.72;1710621;80;26223;-60
2021/03/28 01:20:01;;;;;;;8.23;3.77;;;;;;;3.32;71.82;101692.27;1700482;81;26313;-60
2021/03/28 01:22:34;;;;;;;12.13;3.72;;;;;;;3.26;71.82;101696.66;1695886;81;25968;-60
2021/03/28 01:25:51;;;;;;;8.98;3.55;;;;;;;3.22;71.88;101701.95;1724877;80;27923;-60
2021/03/28 01:28:30;;;;;;;9.85;4.05;;;;;;;3.19;71.88;101699.28;1716157;79;27868;-60
2021/03/28 01:31:06;;;;;;;10.55;4.28;;;;;;;3.16;71.91;101707.22;1717867;80;26603;-59
2021/03/28 01:33:52;;;;;;;10.28;4.47;;;;;;;3.12;71.92;101703.67;1695555;80;26114;-60
2021/03/28 01:36:31;;;;;;;11.20;4.35;;;;;;;3.10;72.00;101704.55;1713951;80;26409;-60
2021/03/28 01:39:04;;;;;;;7.25;3.95;;;;;;;3.06;72.03;101712.92;1715646;80;27811;-60
2021/03/28 01:41:37;;;;;;;7.42;3.80;;;;;;;3.03;72.08;101700.10;1715754;80;26245;-60
2021/03/28 01:44:33;;;;;;;9.38;3.83;;;;;;;3.02;72.11;101711.58;1715743;80;25890;-61
2021/03/28 01:47:21;;;;;;;11.08;4.30;;;;;;;3.01;72.43;101701.86;1703536;80;27028;-60
2021/03/28 01:50:29;;;;;;;11.30;4.78;;;;;;;2.98;72.44;101719.06;1711577;80;25769;-60
2021/03/28 01:53:27;;;;;;;9.50;3.90;;;;;;;2.96;72.62;101714.19;1742450;79;28760;-61
2021/03/28 01:56:21;;;;;;;11.25;4.55;;;;;;;2.91;72.59;101708.44;1711869;81;25963;-61
2021/03/28 01:59:04;;;;;;;8.68;4.45;;;;;;;2.90;72.70;101713.72;1709686;80;25823;-60
2021/03/28 02:02:06;;;;;;;9.28;4.28;;;;;;;2.85;72.76;101709.73;1697896;80;26156;-60
2021/03/28 02:05:14;;;;;;;13.60;4.22;;;;;;;2.82;72.99;101723.39;1691033;82;25802;-60
2021/03/28 02:07:53;;;;;;;12.60;4.85;;;;;;;2.74;73.03;101714.52;1712229;81;27691;-60
2021/03/28 02:10:29;;;;;;;9.15;4.37;;;;;;;2.69;73.21;101717.58;1710638;82;25870;-61
2021/03/28 02:13:02;;;;;;;12.65;4.05;;;;;;;2.62;73.05;101717.98;1737175;80;25803;-61
2021/03/28 02:15:51;;;;;;;16.95;5.47;;;;;;;2.60;73.46;101723.73;1708137;82;26090;-61
2021/03/28 02:18:52;;;;;;;10.75;4.17;;;;;;;2.56;73.29;101728.55;1732004;80;27107;-60
2021/03/28 02:21:48;;;;;;;15.00;3.85;;;;;;;2.52;73.77;101737.34;1715423;80;28561;-60
2021/03/28 02:24:22;;;;;;;9.55;4.15;;;;;;;2.47;73.69;101741.29;1713917;81;25877;-61
2021/03/28 02:27:12;;;;;;;8.45;4.20;;;;;;;2.43;74.07;101743.90;1711931;79;25896;-60
2021/03/28 02:30:01;;;;;;;8.53;4.05;;;;;;;2.40;73.95;101747.41;1706446;80;26265;-60
2021/03/28 02:32:46;;;;;;;7.80;3.83;;;;;;;2.35;74.54;101751.78;1707201;80;25843;-60
2021/03/28 02:35:36;;;;;;;7.85;3.77;;;;;;;2.31;74.07;101748.66;1707472;80;27964;-61
2021/03/28 02:38:21;;;;;;;8.95;3.98;;;;;;;2.26;74.00;101744.66;1722939;80;26137;-59
2021/03/28 02:40:57;;;;;;;11.18;4.20;;;;;;;2.22;74.07;101746.83;1715895;80;25929;-59
2021/03/28 02:43:42;;;;;;;9.48;3.98;;;;;;;2.17;74.13;101754.27;1710783;80;26193;-59
2021/03/28 02:46:27;;;;;;;14.90;4.75;;;;;;;2.13;74.54;101751.15;1711107;82;25779;-59
2021/03/28 02:49:04;;;;;;;9.03;4.05;;;;;;;2.10;74.94;101763.91;1746940;79;26208;-60
2021/03/28 02:51:46;;;;;;;7.62;4.15;;;;;;;2.06;74.48;101753.29;1700641;80;25934;-60
2021/03/28 02:54:43;;;;;;;15.43;5.42;;;;;;;2.03;74.69;101770.45;1714801;80;25741;-59
2021/03/28 02:57:48;;;;;;;14.25;6.30;;;;;;;1.99;74.70;101758.95;1730540;80;26100;-60
2021/03/28 03:01:09;;;;;;;14.53;4.42;;;;;;;1.96;74.76;101765.53;1692712;80;25853;-59
2021/03/28 03:04:15;;;;;;;7.42;3.55;;;;;;;1.91;74.80;101768.57;1725459;80;28537;-60
2021/03/28 03:07:06;;;;;;;10.18;4.28;;;;;;;1.85;74.78;101777.33;1711283;80;25977;-60
2021/03/28 03:10:29;;;;;;;7.62;4.25;;;;;;;1.82;74.90;101776.41;1731394;80;26159;-59
2021/03/28 03:13:17;;;;;;;7.67;4.08;;;;;;;1.78;74.96;101772.84;1735365;80;25850;-60
2021/03/28 03:16:01;;;;;;;10.85;3.90;;;;;;;1.75;75.12;101778.09;1685310;80;25837;-59
2021/03/28 03:19:09;;;;;;;8.63;4.72;;;;;;;1.75;75.20;101776.78;1691041;80;28015;-60
2021/03/28 03:22:20;;;;;;;14.87;5.72;;;;;;;1.75;75.53;101793.07;1707035;80;25689;-61
2021/03/28 03:25:29;;;;;;;8.25;5.22;;;;;;;1.76;75.64;101791.77;1702138;80;26493;-60
2021/03/28 03:28:25;;;;;;;10.60;4.95;;;;;;;1.77;75.64;101788.25;1709491;81;26784;-60
2021/03/28 03:31:25;;;;;;;8.38;4.35;;;;;;;1.76;75.68;101786.91;1735388;80;25828;-60
2021/03/28 03:34:36;;;;;;;12.50;5.50;;;;;;;1.78;75.81;101788.70;1711218;80;27746;-60
2021/03/28 03:37:39;;;;;;;14.18;5.10;;;;;;;1.80;75.82;101799.30;1719228;80;25509;-60
2021/03/28 03:40:36;;;;;;;10.95;4.45;;;;;;;1.82;75.83;101811.66;1723466;80;25998;-61
2021/03/28 03:43:15;;;;;;;12.30;5.33;;;;;;;1.84;76.00;101802.42;1695798;80;26354;-59
2021/03/28 03:46:09;;;;;;;11.18;4.70;;;;;;;1.85;76.13;101800.23;1670551;80;25948;-60
2021/03/28 03:48:55;;;;;;;12.30;4.92;;;;;;;1.87;76.08;101807.31;1739228;80;28596;-59
2021/03/28 03:51:37;;;;;;;12.98;5.22;;;;;;;1.86;76.07;101808.18;1719472;80;25900;-60
2021/03/28 03:54:47;;;;;;;13.22;4.75;;;;;;;1.88;76.09;101805.55;1740505;80;25797;-59
2021/03/28 03:57:46;;;;;;;20.82;5.70;;;;;;;1.88;76.06;101811.73;1714869;80;26333;-60
2021/03/28 04:00:26;;;;;;;17.10;4.60;;;;;;;1.89;76.11;101817.46;1727261;81;25890;-60
2021/03/28 04:03:23;;;;;;;13.45;4.67;;;;;;;1.87;76.15;101825.81;1731236;80;27471;-59
2021/03/28 04:06:09;;;;;;;11.75;4.65;;;;;;;1.85;75.97;101827.55;1698136;80;25750;-60
2021/03/28 04:09:03;;;;;;;11.33;4.05;;;;;;;1.83;76.04;101835.91;1721318;80;25857;-60
2021/03/28 04:12:11;;;;;;;9.78;4.05;;;;;;;1.81;76.02;101837.64;1720946;80;26760;-60
2021/03/28 04:15:21;;;;;;;16.27;4.78;;;;;;;1.82;76.10;101831.92;1713171;81;25842;-60
2021/03/28 04:18:42;;;;;;;15.65;5.22;;;;;;;1.81;76.19;101841.61;1719479;81;27918;-60
2021/03/28 04:21:33;;;;;;;10.08;4.37;;;;;;;1.77;76.25;101842.88;1718000;80;26601;-60
2021/03/28 04:24:30;;;;;;;11.05;5.35;;;;;;;1.72;76.26;101841.94;1735443;80;26111;-60
2021/03/28 04:27:12;;;;;;;13.38;4.35;;;;;;;1.66;76.25;101847.14;1727770;80;26854;-60
2021/03/28 04:29:50;;;;;;;12.58;4.95;;;;;;;1.61;76.20;101845.77;1722731;80;25840;-61
2021/03/28 04:32:33;;;;;;;12.23;4.33;;;;;;;1.56;76.16;101847.03;1720594;80;27975;-60
2021/03/28 04:35:27;;;;;;;11.85;4.75;;;;;;;1.53;76.30;101849.63;1715021;80;25874;-61
2021/03/28 04:38:06;;;;;;;10.65;5.10;;;;;;;1.49;76.35;101854.42;1748934;80;25870;-60
2021/03/28 04:40:56;;;;;;;9.90;4.22;;;;;;;1.48;76.54;101868.94;1731762;80;26331;-61
2021/03/28 04:44:20;;;;;;;11.57;5.50;;;;;;;1.46;76.50;101866.70;1732780;80;25940;-61
2021/03/28 04:46:59;;;;;;;12.73;5.25;;;;;;;1.43;76.72;101866.23;1710082;80;27347;-60
2021/03/28 04:50:01;;;;;;;12.33;6.17;;;;;;;1.39;76.72;101858.25;1719641;81;25830;-60
2021/03/28 04:52:43;;;;;;;9.98;5.33;;;;;;;1.37;76.68;101875.83;1739662;80;27076;-60
2021/03/28 04:55:52;;;;;;;11.68;4.75;;;;;;;1.35;76.69;101874.92;1745635;80;26143;-61
2021/03/28 04:58:50;;;;;;;13.50;5.28;;;;;;;1.35;76.88;101877.13;1735921;80;26408;-61
2021/03/28 05:02:15;;;;;;;11.88;5.30;;;;;;;1.30;76.86;101882.34;1715335;80;28015;-60
2021/03/28 05:05:06;;;;;;;15.30;7.00;;;;;;;1.31;76.98;101889.84;1742183;80;26008;-60
2021/03/28 05:07:47;;;;;;;15.30;5.90;;;;;;;1.33;77.17;101892.06;1720108;81;25488;-60
2021/03/28 05:10:46;;;;;;;10.85;5.72;;;;;;;1.35;77.13;101897.38;1707766;81;26459;-60
2021/03/28 05:13:31;;;;;;;9.55;5.45;;;;;;;1.39;77.28;101896.11;1695665;81;26217;-60
2021/03/28 05:16:27;;;;;;;14.73;5.65;;;;;;;1.43;77.25;101896.61;1709677;81;27631;-60
2021/03/28 05:19:15;;;;;;;14.60;5.25;;;;;;;1.47;77.26;101904.15;1733546;80;26187;-60
2021/03/28 05:22:22;;;;;;;10.13;5.45;;;;;;;1.51;77.28;101908.17;1710770;81;25851;-60
2021/03/28 05:25:27;;;;;;;22.05;5.62;;;;;;;1.54;77.31;101906.89;1737155;80;26827;-61
2021/03/28 05:28:26;;;;;;;14.13;5.65;;;;;;;1.61;77.41;101918.44;1705193;81;26473;-60
2021/03/28 05:31:31;;;;;;;13.65;4.95;;;;;;;1.66;77.44;101922.03;1732141;80;27419;-62
2021/03/28 05:34:53;;;;;;;15.03;5.47;;;;;;;1.68;77.38;101922.94;1738384;80;26070;-61
2021/03/28 05:37:52;;;;;;;12.30;5.83;;;;;;;1.75;77.42;101925.23;1694032;82;25882;-61
2021/03/28 05:41:00;;;;;;;16.55;5.87;;;;;;;1.79;77.66;101935.86;1710796;81;25906;-61
2021/03/28 05:43:53;;;;;;;18.17;5.80;;;;;;;1.82;77.49;101929.30;1721944;81;25894;-61
2021/03/28 05:47:03;;;;;;;9.78;4.40;;;;;;;1.86;77.49;101939.47;1715660;81;27764;-59
2021/03/28 05:50:27;;;;;;;10.65;5.17;;;;;;;1.88;77.60;101937.30;1715045;81;26140;-60
2021/03/28 05:53:33;;;;;;;10.88;5.45;;;;;;;1.94;77.57;101939.14;1742583;80;25952;-59
2021/03/28 05:56:24;;;;;;;10.20;4.95;;;;;;;2.01;77.76;101951.56;1702005;81;26888;-60
2021/03/28 05:59:18;;;;;;;11.05;5.97;;;;;;;2.04;77.60;101950.72;1710484;81;32419;-59
2021/03/28 06:02:20;;;;;;;11.50;5.08;;;;;;;2.09;77.54;101944.61;1695347;81;27379;-59
2021/03/28 06:05:42;;;;;;;16.67;5.05;;;;;;;2.10;77.45;101950.80;1731780;80;25790;-61
2021/03/28 06:08:30;;;;;;;15.15;5.45;;;;;;;2.06;77.43;101945.90;1733676;80;25861;-61
2021/03/28 06:11:42;;;;;;;14.40;6.15;;;;;;;2.06;77.43;101952.51;1696040;81;26783;-62
2021/03/28 06:14:40;;;;;;;14.95;6.08;;;;;;;2.06;77.40;101952.51;1725275;81;25785;-61
2021/03/28 06:17:25;;;;;;;13.83;5.72;;;;;;;2.08;77.52;101958.70;1720255;82;27799;-62
2021/03/28 06:20:22;;;;;;;19.85;6.30;;;;;;;2.08;77.50;101964.43;1706562;81;26213;-62
2021/03/28 06:23:15;;;;;;;19.02;6.87;;;;;;;2.12;77.61;101969.78;1734946;80;25860;-62
2021/03/28 06:26:25;;;;;;;25.17;9.03;;;;;;;2.20;77.61;101968.55;1717653;80;26813;-61
2021/03/28 06:29:27;;;;;;;20.85;7.55;;;;;;;2.35;77.56;101974.45;1721050;80;25842;-62
2021/03/28 06:32:34;;;;;;;15.00;5.58;;;;;;;2.49;77.50;101976.82;1706764;79;27762;-61
2021/03/28 06:35:28;;;;;;;11.83;5.72;;;;;;;2.60;77.44;101987.94;1705659;81;25733;-62
2021/03/28 06:38:33;;;;;;;19.37;7.03;;;;;;;2.67;77.41;101974.77;1702226;81;25826;-65
2021/03/28 06:41:31;;;;;;;22.10;8.50;;;;;;;2.77;77.39;101976.64;1733206;80;26799;-63
2021/03/28 06:44:52;;;;;;;15.65;6.67;;;;;;;2.88;77.37;101987.78;1700546;81;25881;-64
2021/03/28 06:47:57;;;;;;;14.70;6.65;;;;;;;2.93;77.27;101997.98;1708086;81;27859;-62
2021/03/28 06:50:59;;;;;;;16.73;5.65;;;;;;;2.92;77.26;101989.59;1696886;81;25843;-60
2021/03/28 06:53:44;;;;;;;17.40;6.97;;;;;;;2.99;77.23;101985.67;1727436;80;25878;-60
2021/03/28 06:56:53;;;;;;;15.43;6.08;;;;;;;3.10;77.15;101990.63;1719792;81;26118;-60
2021/03/28 06:59:44;;;;;;;13.60;6.87;;;;;;;3.20;77.11;101992.48;1715764;80;25719;-60
2021/03/28 07:02:51;;;;;;;22.00;8.13;;;;;;;3.32;77.02;101985.95;1707819;81;28498;-60
2021/03/28 07:05:46;;;;;;;16.35;6.50;;;;;;;3.41;76.89;101987.36;1714524;81;25873;-60
2021/03/28 07:08:37;;;;;;;15.98;7.00;;;;;;;3.46;76.74;101992.25;1704761;82;26155;-60
2021/03/28 07:11:31;;;;;;;13.45;6.70;;;;;;;3.49;76.69;101993.59;1711573;81;26087;-60
2021/03/28 07:14:37;;;;;;;13.78;4.92;;;;;;;3.54;76.63;101988.33;1714448;81;26437;-60
2021/03/28 07:17:36;;;;;;;22.15;7.55;;;;;;;3.59;76.56;101984.83;1707680;80;28045;-61
2021/03/28 07:20:24;;;;;;;12.40;5.62;;;;;;;3.73;76.52;101983.59;1728893;80;26855;-60
2021/03/28 07:23:33;;;;;;;17.00;6.42;;;;;;;3.84;76.46;101989.84;1739131;80;26629;-60
2021/03/28 07:26:39;;;;;;;20.40;6.87;;;;;;;3.99;76.39;101990.81;1711545;81;26195;-60
2021/03/28 07:29:50;;;;;;;18.07;7.00;;;;;;;4.05;76.17;101985.53;1718092;80;25914;-60
2021/03/28 07:32:54;;;;;;;14.78;5.58;;;;;;;4.10;75.96;101991.31;1742038;80;27325;-60
2021/03/28 07:35:54;;;;;;;20.02;6.33;;;;;;;4.20;76.00;101982.95;1742386;80;26669;-60
2021/03/28 07:39:00;;;;;;;19.95;6.67;;;;;;;4.28;75.83;101974.58;1741361;79;25932;-60
2021/03/28 07:42:08;;;;;;;20.25;6.92;;;;;;;4.36;75.66;101981.24;1709270;82;26135;-62
2021/03/28 07:45:34;;;;;;;24.35;6.22;;;;;;;4.40;75.57;101979.93;1729441;80;25979;-60
2021/03/28 07:48:36;;;;;;;35.33;8.10;;;;;;;4.47;75.53;101976.85;1647448;83;30534;-60
2021/03/28 07:51:35;;;;;;;14.35;6.25;;;;;;;4.52;75.46;101981.30;1672191;83;26038;-60
2021/03/28 07:54:49;;;;;;;12.65;4.78;;;;;;;4.66;75.30;101975.13;1674955;83;25860;-60
2021/03/28 07:57:38;;;;;;;19.10;5.60;;;;;;;4.75;74.69;101982.67;1670819;84;26228;-61
2021/03/28 08:00:52;;;;;;;23.67;5.85;;;;;;;4.73;74.46;101971.61;1670601;83;26141;-61
2021/03/28 08:03:56;;;;;;;19.55;5.35;;;;;;;4.77;74.48;101974.27;1663485;83;27662;-60
2021/03/28 08:06:57;;;;;;;26.42;7.40;;;;;;;5.00;74.54;101985.38;1673039;83;25513;-61
2021/03/28 08:09:58;;;;;;;18.00;5.20;;;;;;;5.15;74.24;101976.96;1652264;85;26564;-61
2021/03/28 08:12:58;;;;;;;25.90;7.87;;;;;;;5.17;73.87;101959.69;1653383;84;25985;-61
2021/03/28 08:15:55;;;;;;;35.58;6.92;;;;;;;5.32;73.53;101975.59;1686817;83;25862;-63
2021/03/28 08:18:39;;;;;;;26.45;6.50;;;;;;;5.39;73.47;101966.73;1652557;85;28506;-62
2021/03/28 08:21:39;;;;;;;26.00;7.72;;;;;;;5.42;73.29;101966.72;1652873;83;25862;-62
2021/03/28 08:24:52;;;;;;;17.23;5.37;;;;;;;5.49;73.30;101969.82;1645952;85;25914;-63
2021/03/28 08:28:02;;;;;;;18.92;4.83;;;;;;;5.57;73.05;101966.27;1676123;83;26753;-62
2021/03/28 08:31:09;;;;;;;26.68;5.05;;;;;;;5.65;72.89;101974.67;1646828;84;26021;-62
2021/03/28 08:34:28;;;;;;;23.40;5.78;;;;;;;5.72;72.59;101972.88;1650005;83;27759;-62
2021/03/28 08:37:16;;;;;;;19.10;5.22;;;;;;;5.81;72.22;101978.19;1645453;83;26099;-63
2021/03/28 08:40:28;;;;;;;37.63;7.97;;;;;;;5.84;71.45;101971.52;1669829;83;25964;-62
2021/03/28 08:43:21;;;;;;;17.32;5.10;;;;;;;5.95;71.71;101983.50;1675798;83;25840;-62
2021/03/28 08:46:35;;;;;;;19.65;5.92;;;;;;;6.03;71.24;101977.27;1678942;83;26607;-61
2021/03/28 08:49:42;;;;;;;17.67;3.72;;;;;;;6.02;71.02;101969.28;1657695;83;27784;-63
2021/03/28 08:52:21;;;;;;;21.02;6.12;;;;;;;6.14;70.82;101974.56;1650692;85;26282;-61
2021/03/28 08:55:18;;;;;;;31.17;7.75;;;;;;;6.27;70.72;101972.30;1611575;86;25955;-64
2021/03/28 08:58:15;;;;;;;40.90;10.68;;;;;;;6.35;69.62;101986.45;1590718;86;26195;-62
2021/03/28 09:01:06;;;;;;;30.43;7.95;;;;;;;6.37;69.87;101979.79;1635401;85;25941;-65
2021/03/28 09:04:11;;;;;;;42.40;11.17;;;;;;;6.47;69.63;101981.07;1640139;85;27776;-60
2021/03/28 09:07:05;;;;;;;27.30;7.47;;;;;;;6.46;68.94;101982.41;1652936;85;26324;-60
2021/03/28 09:09:56;;;;;;;36.85;9.98;;;;;;;6.48;68.90;101978.84;1650795;83;26493;-61
2021/03/28 09:12:56;;;;;;;26.82;6.53;;;;;;;6.44;68.15;101981.09;1660632;83;26143;-61
2021/03/28 09:16:04;;;;;;;20.43;5.85;;;;;;;6.49;68.37;101981.95;1640772;84;25851;-61
2021/03/28 09:18:40;;;;;;;21.02;6.85;;;;;;;6.62;68.47;101970.78;1630718;84;29255;-60
2021/03/28 09:21:55;;;;;;;29.12;7.35;;;;;;;6.78;67.84;101981.78;1681960;83;25951;-63
2021/03/28 09:24:40;;;;;;;23.50;7.58;;;;;;;6.82;67.66;101984.86;1657254;83;26141;-62
2021/03/28 09:27:50;;;;;;;19.73;4.47;;;;;;;6.95;67.80;101987.45;1652746;83;26159;-63
2021/03/28 09:30:40;;;;;;;37.20;9.75;;;;;;;7.04;67.06;101987.38;1678351;83;26504;-62
2021/03/28 09:33:57;;;;;;;41.10;7.62;;;;;;;7.12;66.30;101986.42;1659282;83;27910;-62
2021/03/28 09:36:39;;;;;;;29.23;6.85;;;;;;;7.16;66.00;102000.62;1682972;83;25858;-63
2021/03/28 09:39:38;;;;;;;24.47;5.90;;;;;;;7.22;65.57;101984.57;1680545;83;25912;-62
2021/03/28 09:42:20;;;;;;;27.52;7.20;;;;;;;7.27;64.60;101989.42;1660880;83;26258;-62
2021/03/28 09:45:16;;;;;;;19.85;6.40;;;;;;;7.27;64.54;101993.87;1685201;83;25862;-63
2021/03/28 09:48:20;;;;;;;18.35;5.42;;;;;;;7.34;63.02;101992.47;1637522;85;27780;-63
2021/03/28 09:51:11;;;;;;;23.47;6.45;;;;;;;7.32;63.36;101992.93;1647811;85;26532;-62
2021/03/28 09:54:14;;;;;;;21.60;4.92;;;;;;;7.32;63.20;101990.27;1624459;86;26283;-62
2021/03/28 09:57:16;;;;;;;19.50;5.03;;;;;;;7.34;63.28;102017.81;1636784;85;26169;-63
2021/03/28 10:00:18;;;;;;;30.90;7.78;;;;;;;7.31;61.64;102003.16;1630527;86;26012;-63
2021/03/28 10:03:23;;;;;;;27.40;6.22;;;;;;;7.33;62.26;101996.48;1618351;86;27967;-64
2021/03/28 10:06:01;;;;;;;16.02;3.10;;;;;;;7.43;61.69;101999.06;1607106;86;25845;-63
2021/03/28 10:08:42;;;;;;;33.83;8.48;;;;;;;7.52;59.67;101989.20;1633245;86;25974;-63
2021/03/28 10:11:48;;;;;;;29.27;7.30;;;;;;;7.64;60.11;101989.09;1641278;85;25867;-64
2021/03/28 10:14:34;;;;;;;19.35;3.52;;;;;;;7.75;59.75;101986.75;1629944;85;25896;-66
2021/03/28 10:17:46;;;;;;;28.65;6.28;;;;;;;7.78;58.42;101988.05;1621681;85;28595;-70
2021/03/28 10:20:36;;;;;;;13.95;3.80;;;;;;;7.83;58.51;101989.30;1659230;85;25879;-63
2021/03/28 10:23:30;;;;;;;21.10;4.85;;;;;;;7.89;56.61;101997.24;1649827;85;25877;-63
2021/03/28 10:26:40;;;;;;;16.30;4.17;;;;;;;7.92;57.44;101989.20;1639945;86;26514;-63
2021/03/28 10:29:46;;;;;;;14.50;4.83;;;;;;;7.98;57.47;102004.27;1637706;85;26260;-62
2021/03/28 10:32:33;;;;;;;18.85;4.45;;;;;;;8.03;57.00;101983.29;1652923;85;27820;-62
2021/03/28 10:35:25;;;;;;;25.30;6.42;;;;;;;8.05;55.86;101990.83;1631768;85;26302;-64
2021/03/28 10:38:10;;;;;;;22.58;4.70;;;;;;;8.19;56.50;101984.45;1621409;85;25878;-62
2021/03/28 10:41:01;;;;;;;22.73;5.05;;;;;;;8.35;55.36;101988.28;1654643;85;26050;-63
2021/03/28 10:44:03;;;;;;;29.05;7.20;;;;;;;8.41;55.68;101999.34;1641365;85;25828;-64
2021/03/28 10:47:05;;;;;;;12.47;3.70;;;;;;;8.38;56.13;101983.34;1647738;85;27797;-63
2021/03/28 10:50:13;;;;;;;14.35;3.22;;;;;;;8.45;55.74;101988.59;1656264;85;25955;-63
2021/03/28 10:53:09;;;;;;;18.80;3.40;;;;;;;8.54;54.83;101989.37;1623193;84;26824;-67
2021/03/28 10:56:06;;;;;;;10.58;3.55;;;;;;;8.69;55.38;101986.03;1628641;86;26840;-63
2021/03/28 10:59:18;;;;;;;19.07;4.80;;;;;;;8.70;55.30;101987.80;1642223;84;25747;-62
2021/03/28 11:02:00;;;;;;;12.25;3.27;;;;;;;8.83;55.10;101972.47;1550647;91;27853;-65
2021/03/28 11:05:02;;;;;;;18.07;5.05;;;;;;;8.99;55.13;101978.47;1549003;91;25893;-63
2021/03/28 11:07:47;;;;;;;19.80;5.92;;;;;;;9.11;53.83;101993.87;1593632;87;25959;-65
2021/03/28 11:10:56;;;;;;;34.35;6.62;;;;;;;9.00;53.34;101988.26;1651685;85;26506;-64
2021/03/28 11:14:10;;;;;;;17.30;5.25;;;;;;;8.96;53.52;101986.54;1643602;85;25837;-65
2021/03/28 11:17:37;;;;;;;20.55;4.95;;;;;;;8.99;53.95;101979.81;1644710;85;27388;-63
2021/03/28 11:20:45;;;;;;;26.27;6.45;;;;;;;9.05;53.20;101983.27;1642722;84;26547;-64
2021/03/28 11:23:47;;;;;;;16.65;5.60;;;;;;;9.00;52.91;101985.58;1679258;83;26329;-66
2021/03/28 11:26:51;;;;;;;15.80;3.72;;;;;;;9.05;53.17;101987.73;1596113;84;25953;-67
2021/03/28 11:29:48;;;;;;;20.55;5.00;;;;;;;9.26;52.65;101999.88;1655462;83;25751;-63
2021/03/28 11:32:39;;;;;;;16.10;4.28;;;;;;;9.27;51.75;101981.12;1653057;84;27843;-63
2021/03/28 11:35:15;;;;;;;16.00;4.37;;;;;;;9.29;50.94;101987.80;1651065;83;25997;-64
2021/03/28 11:38:22;;;;;;;18.73;5.45;;;;;;;9.30;50.61;101981.53;1681944;83;26415;-64
2021/03/28 11:41:13;;;;;;;11.18;3.08;;;;;;;9.24;50.90;101974.49;1684893;83;26818;-65
2021/03/28 11:43:52;;;;;;;11.57;3.02;;;;;;;9.20;49.94;101980.80;1651701;83;25902;-66
2021/03/28 11:46:41;;;;;;;13.48;2.90;;;;;;;9.17;49.30;101989.33;1683207;83;26191;-64
2021/03/28 11:49:13;;;;;;;18.25;4.08;;;;;;;9.11;50.01;101975.60;1694588;82;25857;-65
2021/03/28 11:51:47;;;;;;;14.75;4.80;;;;;;;9.20;49.93;102001.32;1705836;82;25843;-63
2021/03/28 11:54:24;;;;;;;22.13;3.58;;;;;;;9.25;49.22;101978.05;1686828;82;25758;-64
2021/03/28 11:57:06;;;;;;;18.90;5.00;;;;;;;9.25;49.41;101976.72;1663274;82;25819;-63
2021/03/28 11:59:52;;;;;;;20.85;4.55;;;;;;;9.32;49.42;101978.38;1635276;84;28483;-64
2021/03/28 12:02:30;;;;;;;11.15;2.95;;;;;;;9.42;49.15;101984.89;1693544;82;26731;-62
2021/03/28 12:05:10;;;;;;;20.23;5.58;;;;;;;9.37;49.19;101981.41;1686249;82;25998;-62
2021/03/28 12:07:44;;;;;;;17.95;4.85;;;;;;;9.39;48.76;101976.02;1678693;82;26316;-64
2021/03/28 12:10:26;;;;;;;14.55;3.40;;;;;;;9.50;49.25;101974.50;1691309;82;25875;-64
2021/03/28 12:13:05;;;;;;;13.50;3.30;;;;;;;9.58;49.23;101972.57;1680640;82;28538;-64
2021/03/28 12:15:54;;;;;;;18.12;3.95;;;;;;;9.66;49.57;101967.96;1695809;83;26359;-63
2021/03/28 12:18:30;;;;;;;15.45;4.05;;;;;;;9.60;48.67;101964.06;1646092;85;25782;-62
2021/03/28 12:21:09;;;;;;;15.30;3.33;;;;;;;9.69;48.77;101961.21;1672799;84;26891;-62
2021/03/28 12:23:58;;;;;;;15.28;4.30;;;;;;;9.77;49.21;101961.95;1673983;84;25749;-62
2021/03/28 12:26:37;;;;;;;15.18;4.03;;;;;;;9.80;47.62;101969.92;1638942;83;27945;-62
2021/03/28 12:29:18;;;;;;;18.12;3.98;;;;;;;9.73;47.62;101956.23;1674337;82;25837;-62
2021/03/28 12:31:51;;;;;;;12.15;3.72;;;;;;;9.69;47.99;101959.88;1646617;84;25840;-63
2021/03/28 12:34:37;;;;;;;17.55;4.58;;;;;;;9.73;48.16;101948.19;1668596;83;25908;-66
2021/03/28 12:37:11;;;;;;;13.05;3.52;;;;;;;9.81;48.67;101947.59;1679358;83;25901;-68
2021/03/28 12:39:44;;;;;;;12.93;4.33;;;;;;;9.98;48.64;101952.16;1672799;84;27338;-67
2021/03/28 12:42:38;;;;;;;19.05;4.65;;;;;;;10.07;48.83;101943.94;1661057;84;26504;-68
2021/03/28 12:45:16;;;;;;;16.37;4.20;;;;;;;10.31;48.89;101959.11;1672459;83;25867;-68
2021/03/28 12:47:59;;;;;;;11.45;4.08;;;;;;;10.25;47.93;101952.08;1648041;84;26352;-68
2021/03/28 12:50:38;;;;;;;13.62;3.45;;;;;;;10.17;47.34;101947.31;1668156;83;25807;-68
2021/03/28 12:53:14;;;;;;;13.35;3.42;;;;;;;10.06;47.42;101944.85;1675572;83;27938;-67
2021/03/28 12:55:54;;;;;;;12.45;2.80;;;;;;;10.11;47.54;101937.17;1675056;82;25974;-69
2021/03/28 12:58:49;;;;;;;6.70;2.33;;;;;;;10.26;47.67;101939.11;1656502;83;26545;-68
2021/03/28 13:01:31;;;;;;;15.48;3.22;;;;;;;10.35;47.04;101939.37;1687329;82;26559;-69
2021/03/28 13:04:22;;;;;;;12.78;3.15;;;;;;;10.41;47.18;101928.02;1670714;83;25954;-69
2021/03/28 13:06:52;;;;;;;8.08;2.67;;;;;;;10.54;46.65;101943.38;1659006;83;28560;-69
2021/03/28 13:09:28;;;;;;;9.43;3.10;;;;;;;10.58;47.01;101930.78;1671004;83;26420;-69
2021/03/28 13:12:10;;;;;;;11.73;3.62;;;;;;;10.63;46.00;101936.46;1655934;82;26597;-70
2021/03/28 13:14:49;;;;;;;12.88;3.12;;;;;;;10.53;45.08;101934.91;1687217;81;26649;-68
2021/03/28 13:17:28;;;;;;;13.08;3.85;;;;;;;10.55;45.14;101930.39;1711438;82;26059;-68
2021/03/28 13:20:22;;;;;;;13.28;3.52;;;;;;;10.68;45.67;101926.97;1705260;82;27855;-69
2021/03/28 13:22:52;;;;;;;12.68;3.05;;;;;;;10.85;44.55;101926.57;1699057;82;25876;-69
2021/03/28 13:25:31;;;;;;;13.62;3.72;;;;;;;11.19;45.60;101918.11;1674337;82;25937;-70
2021/03/28 13:28:13;;;;;;;16.15;5.05;;;;;;;11.55;45.35;101912.70;1680410;82;25848;-69
2021/03/28 13:30:45;;;;;;;16.12;4.50;;;;;;;11.68;44.63;101919.49;1670406;83;26635;-68